sensor_id;sensor_type;location;lat;lon;timestamp;P1;durP1;ratioP1;P2;durP2;ratioP2
61638;SDS011;47544;52.484;4.658;2023-05-16T00:00:00;10.43;;;1.65;;
61638;SDS011;47544;52.484;4.658;2023-05-16T00:00:11;10.30;;;1.42;;
61638;SDS011;47544;52.484;4.658;2023-05-16T00:00:23;7.65;;;1.00;;
61638;SDS011;47544;52.484;4.658;2023-05-16T00:00:34;6.40;;;0.90;;
61638;SDS011;47544;52.484;4.658;2023-05-16T00:00:46;6.63;;;1.10;;
61638;SDS011;47544;52.484;4.658;2023-05-16T00:00:57;7.88;;;1.13;;
61638;SDS011;47544;52.484;4.658;2023-05-16T00:01:08;10.00;;;1.20;;
61638;SDS011;47544;52.484;4.658;2023-05-16T00:01:19;9.85;;;1.08;;
61638;SDS011;47544;52.484;4.658;2023-05-16T00:01:31;7.88;;;1.08;;
61638;SDS011;47544;52.484;4.658;2023-05-16T00:01:45;6.35;;;1.33;;
61638;SDS011;47544;52.484;4.658;2023-05-16T00:01:59;6.30;;;1.40;;
61638;SDS011;47544;52.484;4.658;2023-05-16T00:02:10;6.57;;;1.05;;
61638;SDS011;47544;52.484;4.658;2023-05-16T00:02:21;6.57;;;1.25;;
61638;SDS011;47544;52.484;4.658;2023-05-16T00:02:32;6.90;;;1.20;;
61638;SDS011;47544;52.484;4.658;2023-05-16T00:02:43;7.68;;;1.25;;
61638;SDS011;47544;52.484;4.658;2023-05-16T00:02:54;9.05;;;1.20;;
61638;SDS011;47544;52.484;4.658;2023-05-16T00:03:05;8.30;;;1.17;;
61638;SDS011;47544;52.484;4.658;2023-05-16T00:03:16;9.07;;;1.10;;
61638;SDS011;47544;52.484;4.658;2023-05-16T00:03:29;11.13;;;1.45;;
61638;SDS011;47544;52.484;4.658;2023-05-16T00:03:41;11.57;;;1.88;;
61638;SDS011;47544;52.484;4.658;2023-05-16T00:03:52;13.07;;;2.10;;
61638;SDS011;47544;52.484;4.658;2023-05-16T00:04:03;13.63;;;1.95;;
61638;SDS011;47544;52.484;4.658;2023-05-16T00:04:14;13.20;;;1.63;;
61638;SDS011;47544;52.484;4.658;2023-05-16T00:04:25;10.40;;;1.45;;
61638;SDS011;47544;52.484;4.658;2023-05-16T00:04:36;9.15;;;1.20;;
61638;SDS011;47544;52.484;4.658;2023-05-16T00:04:47;7.50;;;1.20;;
61638;SDS011;47544;52.484;4.658;2023-05-16T00:04:59;9.52;;;1.30;;
61638;SDS011;47544;52.484;4.658;2023-05-16T00:05:11;10.40;;;1.52;;
61638;SDS011;47544;52.484;4.658;2023-05-16T00:05:24;8.68;;;1.33;;
61638;SDS011;47544;52.484;4.658;2023-05-16T00:05:35;6.50;;;1.15;;
61638;SDS011;47544;52.484;4.658;2023-05-16T00:05:46;6.47;;;1.20;;
61638;SDS011;47544;52.484;4.658;2023-05-16T00:05:57;7.60;;;1.30;;
61638;SDS011;47544;52.484;4.658;2023-05-16T00:06:08;8.68;;;1.40;;
61638;SDS011;47544;52.484;4.658;2023-05-16T00:06:19;7.07;;;1.20;;
61638;SDS011;47544;52.484;4.658;2023-05-16T00:06:30;7.28;;;1.40;;
61638;SDS011;47544;52.484;4.658;2023-05-16T00:06:42;7.72;;;1.55;;
61638;SDS011;47544;52.484;4.658;2023-05-16T00:06:53;8.55;;;1.58;;
61638;SDS011;47544;52.484;4.658;2023-05-16T00:07:04;8.07;;;1.40;;
61638;SDS011;47544;52.484;4.658;2023-05-16T00:07:16;6.57;;;1.02;;
61638;SDS011;47544;52.484;4.658;2023-05-16T00:07:27;7.60;;;1.40;;
61638;SDS011;47544;52.484;4.658;2023-05-16T00:07:40;7.65;;;1.60;;
61638;SDS011;47544;52.484;4.658;2023-05-16T00:07:52;8.13;;;1.30;;
61638;SDS011;47544;52.484;4.658;2023-05-16T00:08:03;8.30;;;1.20;;
61638;SDS011;47544;52.484;4.658;2023-05-16T00:08:14;7.70;;;1.20;;
61638;SDS011;47544;52.484;4.658;2023-05-16T00:08:25;6.60;;;0.95;;
61638;SDS011;47544;52.484;4.658;2023-05-16T00:08:36;5.57;;;0.90;;
61638;SDS011;47544;52.484;4.658;2023-05-16T00:08:47;6.65;;;1.05;;
61638;SDS011;47544;52.484;4.658;2023-05-16T00:08:58;8.48;;;1.20;;
61638;SDS011;47544;52.484;4.658;2023-05-16T00:09:09;10.18;;;1.23;;
61638;SDS011;47544;52.484;4.658;2023-05-16T00:09:20;11.85;;;1.40;;
61638;SDS011;47544;52.484;4.658;2023-05-16T00:09:31;10.57;;;1.40;;
61638;SDS011;47544;52.484;4.658;2023-05-16T00:09:42;9.50;;;1.40;;
61638;SDS011;47544;52.484;4.658;2023-05-16T00:09:53;9.32;;;1.20;;
61638;SDS011;47544;52.484;4.658;2023-05-16T00:10:05;9.50;;;1.30;;
61638;SDS011;47544;52.484;4.658;2023-05-16T00:10:16;9.40;;;1.45;;
61638;SDS011;47544;52.484;4.658;2023-05-16T00:10:27;7.75;;;1.55;;
61638;SDS011;47544;52.484;4.658;2023-05-16T00:10:39;7.03;;;1.48;;
61638;SDS011;47544;52.484;4.658;2023-05-16T00:10:49;7.28;;;1.20;;
61638;SDS011;47544;52.484;4.658;2023-05-16T00:11:00;7.28;;;1.30;;
61638;SDS011;47544;52.484;4.658;2023-05-16T00:11:11;8.13;;;1.30;;
61638;SDS011;47544;52.484;4.658;2023-05-16T00:11:23;8.10;;;1.40;;
61638;SDS011;47544;52.484;4.658;2023-05-16T00:11:34;8.32;;;1.20;;
61638;SDS011;47544;52.484;4.658;2023-05-16T00:11:45;8.77;;;1.45;;
61638;SDS011;47544;52.484;4.658;2023-05-16T00:11:57;9.07;;;1.58;;
61638;SDS011;47544;52.484;4.658;2023-05-16T00:12:09;8.50;;;1.75;;
61638;SDS011;47544;52.484;4.658;2023-05-16T00:12:20;9.38;;;1.90;;
61638;SDS011;47544;52.484;4.658;2023-05-16T00:12:32;10.20;;;1.60;;
61638;SDS011;47544;52.484;4.658;2023-05-16T00:12:43;9.95;;;1.48;;
61638;SDS011;47544;52.484;4.658;2023-05-16T00:12:55;8.40;;;1.50;;
61638;SDS011;47544;52.484;4.658;2023-05-16T00:13:07;7.35;;;1.45;;
61638;SDS011;47544;52.484;4.658;2023-05-16T00:13:20;9.20;;;1.42;;
61638;SDS011;47544;52.484;4.658;2023-05-16T00:13:34;8.77;;;1.40;;
61638;SDS011;47544;52.484;4.658;2023-05-16T00:13:45;7.38;;;1.30;;
61638;SDS011;47544;52.484;4.658;2023-05-16T00:13:57;8.23;;;1.33;;
61638;SDS011;47544;52.484;4.658;2023-05-16T00:14:10;11.25;;;1.35;;
61638;SDS011;47544;52.484;4.658;2023-05-16T00:14:22;10.85;;;1.38;;
61638;SDS011;47544;52.484;4.658;2023-05-16T00:14:35;9.68;;;1.55;;
61638;SDS011;47544;52.484;4.658;2023-05-16T00:14:46;8.40;;;1.48;;
61638;SDS011;47544;52.484;4.658;2023-05-16T00:14:58;8.95;;;1.55;;
61638;SDS011;47544;52.484;4.658;2023-05-16T00:15:09;9.55;;;1.40;;
61638;SDS011;47544;52.484;4.658;2023-05-16T00:15:23;10.23;;;1.50;;
61638;SDS011;47544;52.484;4.658;2023-05-16T00:15:34;9.02;;;1.50;;
61638;SDS011;47544;52.484;4.658;2023-05-16T00:15:48;8.75;;;1.38;;
61638;SDS011;47544;52.484;4.658;2023-05-16T00:15:59;10.00;;;1.63;;
61638;SDS011;47544;52.484;4.658;2023-05-16T00:16:12;9.35;;;1.50;;
61638;SDS011;47544;52.484;4.658;2023-05-16T00:16:24;8.65;;;1.30;;
61638;SDS011;47544;52.484;4.658;2023-05-16T00:16:35;8.52;;;1.27;;
61638;SDS011;47544;52.484;4.658;2023-05-16T00:16:46;11.35;;;1.40;;
61638;SDS011;47544;52.484;4.658;2023-05-16T00:16:57;11.00;;;1.42;;
61638;SDS011;47544;52.484;4.658;2023-05-16T00:17:10;10.82;;;1.45;;
61638;SDS011;47544;52.484;4.658;2023-05-16T00:17:21;10.38;;;1.60;;
61638;SDS011;47544;52.484;4.658;2023-05-16T00:17:32;11.25;;;1.75;;
61638;SDS011;47544;52.484;4.658;2023-05-16T00:17:45;12.00;;;1.60;;
61638;SDS011;47544;52.484;4.658;2023-05-16T00:17:56;11.77;;;1.40;;
61638;SDS011;47544;52.484;4.658;2023-05-16T00:18:08;11.60;;;1.73;;
61638;SDS011;47544;52.484;4.658;2023-05-16T00:18:19;8.88;;;1.63;;
61638;SDS011;47544;52.484;4.658;2023-05-16T00:18:31;7.28;;;1.48;;
61638;SDS011;47544;52.484;4.658;2023-05-16T00:18:46;8.18;;;1.10;;
61638;SDS011;47544;52.484;4.658;2023-05-16T00:18:57;10.15;;;1.35;;
61638;SDS011;47544;52.484;4.658;2023-05-16T00:19:10;10.27;;;1.50;;
61638;SDS011;47544;52.484;4.658;2023-05-16T00:19:21;11.30;;;1.83;;
61638;SDS011;47544;52.484;4.658;2023-05-16T00:19:33;10.95;;;1.73;;
61638;SDS011;47544;52.484;4.658;2023-05-16T00:19:45;9.25;;;1.50;;
61638;SDS011;47544;52.484;4.658;2023-05-16T00:19:56;9.60;;;1.30;;
61638;SDS011;47544;52.484;4.658;2023-05-16T00:20:08;8.57;;;1.40;;
61638;SDS011;47544;52.484;4.658;2023-05-16T00:20:21;7.88;;;1.40;;
61638;SDS011;47544;52.484;4.658;2023-05-16T00:20:34;7.70;;;1.33;;
61638;SDS011;47544;52.484;4.658;2023-05-16T00:20:45;8.38;;;1.30;;
61638;SDS011;47544;52.484;4.658;2023-05-16T00:20:55;7.85;;;1.27;;
61638;SDS011;47544;52.484;4.658;2023-05-16T00:21:07;7.88;;;1.20;;
61638;SDS011;47544;52.484;4.658;2023-05-16T00:21:20;7.88;;;1.00;;
61638;SDS011;47544;52.484;4.658;2023-05-16T00:21:31;9.23;;;1.20;;
61638;SDS011;47544;52.484;4.658;2023-05-16T00:21:42;8.87;;;1.40;;
61638;SDS011;47544;52.484;4.658;2023-05-16T00:21:54;7.95;;;1.40;;
61638;SDS011;47544;52.484;4.658;2023-05-16T00:22:05;7.28;;;1.20;;
61638;SDS011;47544;52.484;4.658;2023-05-16T00:22:17;6.38;;;0.98;;
61638;SDS011;47544;52.484;4.658;2023-05-16T00:22:28;5.53;;;0.90;;
61638;SDS011;47544;52.484;4.658;2023-05-16T00:22:40;6.95;;;1.00;;
61638;SDS011;47544;52.484;4.658;2023-05-16T00:22:51;8.77;;;1.15;;
61638;SDS011;47544;52.484;4.658;2023-05-16T00:23:02;9.60;;;1.37;;
61638;SDS011;47544;52.484;4.658;2023-05-16T00:23:13;12.65;;;1.63;;
61638;SDS011;47544;52.484;4.658;2023-05-16T00:23:24;12.77;;;1.80;;
61638;SDS011;47544;52.484;4.658;2023-05-16T00:23:35;11.20;;;1.73;;
61638;SDS011;47544;52.484;4.658;2023-05-16T00:23:47;9.18;;;1.35;;
61638;SDS011;47544;52.484;4.658;2023-05-16T00:23:57;8.93;;;1.23;;
61638;SDS011;47544;52.484;4.658;2023-05-16T00:24:08;10.73;;;1.42;;
61638;SDS011;47544;52.484;4.658;2023-05-16T00:24:20;12.00;;;1.42;;
61638;SDS011;47544;52.484;4.658;2023-05-16T00:24:31;12.30;;;1.40;;
61638;SDS011;47544;52.484;4.658;2023-05-16T00:24:43;9.52;;;1.42;;
61638;SDS011;47544;52.484;4.658;2023-05-16T00:24:54;8.95;;;1.48;;
61638;SDS011;47544;52.484;4.658;2023-05-16T00:25:05;8.40;;;1.65;;
61638;SDS011;47544;52.484;4.658;2023-05-16T00:25:18;7.97;;;1.70;;
61638;SDS011;47544;52.484;4.658;2023-05-16T00:25:29;8.20;;;1.80;;
61638;SDS011;47544;52.484;4.658;2023-05-16T00:25:40;8.27;;;1.20;;
61638;SDS011;47544;52.484;4.658;2023-05-16T00:25:51;9.70;;;1.20;;
61638;SDS011;47544;52.484;4.658;2023-05-16T00:26:02;9.63;;;1.40;;
61638;SDS011;47544;52.484;4.658;2023-05-16T00:26:13;9.57;;;1.55;;
61638;SDS011;47544;52.484;4.658;2023-05-16T00:26:25;9.10;;;1.58;;
61638;SDS011;47544;52.484;4.658;2023-05-16T00:26:36;9.40;;;1.60;;
61638;SDS011;47544;52.484;4.658;2023-05-16T00:26:47;10.20;;;1.65;;
61638;SDS011;47544;52.484;4.658;2023-05-16T00:26:57;11.18;;;1.77;;
61638;SDS011;47544;52.484;4.658;2023-05-16T00:27:08;10.30;;;1.58;;
61638;SDS011;47544;52.484;4.658;2023-05-16T00:27:19;9.68;;;1.50;;
61638;SDS011;47544;52.484;4.658;2023-05-16T00:27:32;8.50;;;1.50;;
61638;SDS011;47544;52.484;4.658;2023-05-16T00:27:43;8.70;;;1.48;;
61638;SDS011;47544;52.484;4.658;2023-05-16T00:27:55;9.98;;;1.50;;
61638;SDS011;47544;52.484;4.658;2023-05-16T00:28:06;8.73;;;1.40;;
61638;SDS011;47544;52.484;4.658;2023-05-16T00:28:17;7.13;;;1.17;;
61638;SDS011;47544;52.484;4.658;2023-05-16T00:28:28;7.43;;;1.30;;
61638;SDS011;47544;52.484;4.658;2023-05-16T00:28:40;8.40;;;1.40;;
61638;SDS011;47544;52.484;4.658;2023-05-16T00:28:51;8.57;;;1.45;;
61638;SDS011;47544;52.484;4.658;2023-05-16T00:29:02;10.20;;;1.38;;
61638;SDS011;47544;52.484;4.658;2023-05-16T00:29:13;10.68;;;1.50;;
61638;SDS011;47544;52.484;4.658;2023-05-16T00:29:24;9.80;;;1.60;;
61638;SDS011;47544;52.484;4.658;2023-05-16T00:29:36;8.60;;;1.52;;
61638;SDS011;47544;52.484;4.658;2023-05-16T00:29:46;8.02;;;1.42;;
61638;SDS011;47544;52.484;4.658;2023-05-16T00:29:57;8.55;;;1.52;;
61638;SDS011;47544;52.484;4.658;2023-05-16T00:30:08;9.98;;;1.55;;
61638;SDS011;47544;52.484;4.658;2023-05-16T00:30:19;8.60;;;1.40;;
61638;SDS011;47544;52.484;4.658;2023-05-16T00:30:30;6.82;;;1.20;;
61638;SDS011;47544;52.484;4.658;2023-05-16T00:30:41;6.90;;;1.10;;
61638;SDS011;47544;52.484;4.658;2023-05-16T00:30:52;7.90;;;1.10;;
61638;SDS011;47544;52.484;4.658;2023-05-16T00:31:03;9.60;;;1.27;;
61638;SDS011;47544;52.484;4.658;2023-05-16T00:31:15;9.90;;;1.45;;
61638;SDS011;47544;52.484;4.658;2023-05-16T00:31:26;9.45;;;1.45;;
61638;SDS011;47544;52.484;4.658;2023-05-16T00:31:37;6.95;;;1.25;;
61638;SDS011;47544;52.484;4.658;2023-05-16T00:31:48;7.45;;;1.25;;
61638;SDS011;47544;52.484;4.658;2023-05-16T00:31:59;9.63;;;1.50;;
61638;SDS011;47544;52.484;4.658;2023-05-16T00:32:10;12.05;;;1.55;;
61638;SDS011;47544;52.484;4.658;2023-05-16T00:32:21;11.82;;;1.40;;
61638;SDS011;47544;52.484;4.658;2023-05-16T00:32:32;12.30;;;1.58;;
61638;SDS011;47544;52.484;4.658;2023-05-16T00:32:43;12.23;;;2.00;;
61638;SDS011;47544;52.484;4.658;2023-05-16T00:32:54;10.73;;;1.92;;
61638;SDS011;47544;52.484;4.658;2023-05-16T00:33:05;9.98;;;1.80;;
61638;SDS011;47544;52.484;4.658;2023-05-16T00:33:16;9.63;;;1.55;;
61638;SDS011;47544;52.484;4.658;2023-05-16T00:33:27;10.52;;;1.52;;
61638;SDS011;47544;52.484;4.658;2023-05-16T00:33:38;10.73;;;1.40;;
61638;SDS011;47544;52.484;4.658;2023-05-16T00:33:49;11.13;;;2.00;;
61638;SDS011;47544;52.484;4.658;2023-05-16T00:34:00;11.27;;;2.00;;
61638;SDS011;47544;52.484;4.658;2023-05-16T00:34:12;12.98;;;1.95;;
61638;SDS011;47544;52.484;4.658;2023-05-16T00:34:23;12.38;;;1.80;;
61638;SDS011;47544;52.484;4.658;2023-05-16T00:34:36;11.85;;;1.77;;
61638;SDS011;47544;52.484;4.658;2023-05-16T00:34:47;11.70;;;2.45;;
61638;SDS011;47544;52.484;4.658;2023-05-16T00:34:58;11.43;;;2.45;;
61638;SDS011;47544;52.484;4.658;2023-05-16T00:35:09;10.40;;;2.25;;
61638;SDS011;47544;52.484;4.658;2023-05-16T00:35:22;8.48;;;1.50;;
61638;SDS011;47544;52.484;4.658;2023-05-16T00:35:32;9.05;;;1.50;;
61638;SDS011;47544;52.484;4.658;2023-05-16T00:35:43;12.95;;;1.75;;
61638;SDS011;47544;52.484;4.658;2023-05-16T00:35:54;15.05;;;1.92;;
61638;SDS011;47544;52.484;4.658;2023-05-16T00:36:05;13.95;;;1.77;;
61638;SDS011;47544;52.484;4.658;2023-05-16T00:36:16;10.73;;;1.77;;
61638;SDS011;47544;52.484;4.658;2023-05-16T00:36:27;9.13;;;1.65;;
61638;SDS011;47544;52.484;4.658;2023-05-16T00:36:38;6.93;;;1.45;;
61638;SDS011;47544;52.484;4.658;2023-05-16T00:36:49;6.70;;;1.33;;
61638;SDS011;47544;52.484;4.658;2023-05-16T00:37:01;6.72;;;1.20;;
61638;SDS011;47544;52.484;4.658;2023-05-16T00:37:12;7.60;;;1.30;;
61638;SDS011;47544;52.484;4.658;2023-05-16T00:37:24;7.93;;;1.30;;
61638;SDS011;47544;52.484;4.658;2023-05-16T00:37:35;9.23;;;1.30;;
61638;SDS011;47544;52.484;4.658;2023-05-16T00:37:46;10.73;;;1.50;;
61638;SDS011;47544;52.484;4.658;2023-05-16T00:37:57;10.75;;;1.45;;
61638;SDS011;47544;52.484;4.658;2023-05-16T00:38:08;8.80;;;1.35;;
61638;SDS011;47544;52.484;4.658;2023-05-16T00:38:20;7.75;;;1.23;;
61638;SDS011;47544;52.484;4.658;2023-05-16T00:38:30;9.13;;;1.37;;
61638;SDS011;47544;52.484;4.658;2023-05-16T00:38:42;10.23;;;1.40;;
61638;SDS011;47544;52.484;4.658;2023-05-16T00:38:53;10.40;;;1.45;;
61638;SDS011;47544;52.484;4.658;2023-05-16T00:39:04;10.40;;;1.80;;
61638;SDS011;47544;52.484;4.658;2023-05-16T00:39:15;11.25;;;1.95;;
61638;SDS011;47544;52.484;4.658;2023-05-16T00:39:26;12.88;;;2.03;;
61638;SDS011;47544;52.484;4.658;2023-05-16T00:39:37;11.00;;;1.52;;
61638;SDS011;47544;52.484;4.658;2023-05-16T00:39:48;10.18;;;1.23;;
61638;SDS011;47544;52.484;4.658;2023-05-16T00:39:59;10.00;;;1.33;;
61638;SDS011;47544;52.484;4.658;2023-05-16T00:40:11;11.30;;;1.40;;
61638;SDS011;47544;52.484;4.658;2023-05-16T00:40:22;10.38;;;1.40;;
61638;SDS011;47544;52.484;4.658;2023-05-16T00:40:33;8.73;;;1.20;;
61638;SDS011;47544;52.484;4.658;2023-05-16T00:40:44;7.93;;;1.27;;
61638;SDS011;47544;52.484;4.658;2023-05-16T00:40:55;11.25;;;1.40;;
61638;SDS011;47544;52.484;4.658;2023-05-16T00:41:06;12.80;;;1.40;;
61638;SDS011;47544;52.484;4.658;2023-05-16T00:41:17;10.30;;;1.25;;
61638;SDS011;47544;52.484;4.658;2023-05-16T00:41:28;8.90;;;1.17;;
61638;SDS011;47544;52.484;4.658;2023-05-16T00:41:40;8.90;;;1.40;;
61638;SDS011;47544;52.484;4.658;2023-05-16T00:41:51;8.82;;;1.42;;
61638;SDS011;47544;52.484;4.658;2023-05-16T00:42:02;7.75;;;1.38;;
61638;SDS011;47544;52.484;4.658;2023-05-16T00:42:13;7.53;;;1.30;;
61638;SDS011;47544;52.484;4.658;2023-05-16T00:42:24;7.35;;;1.13;;
61638;SDS011;47544;52.484;4.658;2023-05-16T00:42:36;9.85;;;1.10;;
61638;SDS011;47544;52.484;4.658;2023-05-16T00:42:47;11.73;;;1.25;;
61638;SDS011;47544;52.484;4.658;2023-05-16T00:43:00;9.45;;;1.10;;
61638;SDS011;47544;52.484;4.658;2023-05-16T00:43:12;8.23;;;0.90;;
61638;SDS011;47544;52.484;4.658;2023-05-16T00:43:23;7.80;;;0.90;;
61638;SDS011;47544;52.484;4.658;2023-05-16T00:43:34;10.77;;;1.13;;
61638;SDS011;47544;52.484;4.658;2023-05-16T00:43:45;11.60;;;1.20;;
61638;SDS011;47544;52.484;4.658;2023-05-16T00:43:56;13.07;;;1.35;;
61638;SDS011;47544;52.484;4.658;2023-05-16T00:44:09;10.48;;;1.40;;
61638;SDS011;47544;52.484;4.658;2023-05-16T00:44:20;8.27;;;1.27;;
61638;SDS011;47544;52.484;4.658;2023-05-16T00:44:32;7.50;;;1.20;;
61638;SDS011;47544;52.484;4.658;2023-05-16T00:44:43;8.20;;;1.35;;
61638;SDS011;47544;52.484;4.658;2023-05-16T00:44:54;8.40;;;1.63;;
61638;SDS011;47544;52.484;4.658;2023-05-16T00:45:05;8.63;;;1.58;;
61638;SDS011;47544;52.484;4.658;2023-05-16T00:45:16;8.95;;;1.60;;
61638;SDS011;47544;52.484;4.658;2023-05-16T00:45:27;11.07;;;1.40;;
61638;SDS011;47544;52.484;4.658;2023-05-16T00:45:38;10.32;;;1.33;;
61638;SDS011;47544;52.484;4.658;2023-05-16T00:45:49;9.00;;;1.23;;
61638;SDS011;47544;52.484;4.658;2023-05-16T00:46:00;8.20;;;1.15;;
61638;SDS011;47544;52.484;4.658;2023-05-16T00:46:12;9.00;;;1.20;;
61638;SDS011;47544;52.484;4.658;2023-05-16T00:46:22;9.82;;;1.05;;
61638;SDS011;47544;52.484;4.658;2023-05-16T00:46:33;10.13;;;1.15;;
61638;SDS011;47544;52.484;4.658;2023-05-16T00:46:45;9.63;;;1.20;;
61638;SDS011;47544;52.484;4.658;2023-05-16T00:46:57;9.32;;;1.40;;
61638;SDS011;47544;52.484;4.658;2023-05-16T00:47:09;9.70;;;1.33;;
61638;SDS011;47544;52.484;4.658;2023-05-16T00:47:20;10.65;;;1.33;;
61638;SDS011;47544;52.484;4.658;2023-05-16T00:47:32;10.07;;;1.45;;
61638;SDS011;47544;52.484;4.658;2023-05-16T00:47:43;9.18;;;1.42;;
61638;SDS011;47544;52.484;4.658;2023-05-16T00:47:54;8.40;;;1.50;;
61638;SDS011;47544;52.484;4.658;2023-05-16T00:48:05;9.27;;;1.42;;
61638;SDS011;47544;52.484;4.658;2023-05-16T00:48:16;9.75;;;1.45;;
61638;SDS011;47544;52.484;4.658;2023-05-16T00:48:27;9.63;;;1.50;;
61638;SDS011;47544;52.484;4.658;2023-05-16T00:48:38;9.73;;;1.58;;
61638;SDS011;47544;52.484;4.658;2023-05-16T00:48:48;10.55;;;1.67;;
61638;SDS011;47544;52.484;4.658;2023-05-16T00:49:00;10.82;;;1.52;;
61638;SDS011;47544;52.484;4.658;2023-05-16T00:49:11;9.48;;;1.30;;
61638;SDS011;47544;52.484;4.658;2023-05-16T00:49:22;9.17;;;1.20;;
61638;SDS011;47544;52.484;4.658;2023-05-16T00:49:33;9.07;;;1.10;;
61638;SDS011;47544;52.484;4.658;2023-05-16T00:49:44;7.60;;;0.97;;
61638;SDS011;47544;52.484;4.658;2023-05-16T00:49:55;7.20;;;0.90;;
61638;SDS011;47544;52.484;4.658;2023-05-16T00:50:06;6.35;;;0.90;;
61638;SDS011;47544;52.484;4.658;2023-05-16T00:50:17;7.00;;;1.00;;
61638;SDS011;47544;52.484;4.658;2023-05-16T00:50:31;7.15;;;1.08;;
61638;SDS011;47544;52.484;4.658;2023-05-16T00:50:42;9.13;;;1.25;;
61638;SDS011;47544;52.484;4.658;2023-05-16T00:50:53;11.18;;;1.42;;
61638;SDS011;47544;52.484;4.658;2023-05-16T00:51:04;9.80;;;1.40;;
61638;SDS011;47544;52.484;4.658;2023-05-16T00:51:19;8.20;;;1.27;;
61638;SDS011;47544;52.484;4.658;2023-05-16T00:51:29;9.68;;;1.20;;
61638;SDS011;47544;52.484;4.658;2023-05-16T00:51:41;10.77;;;1.30;;
61638;SDS011;47544;52.484;4.658;2023-05-16T00:51:52;9.93;;;1.40;;
61638;SDS011;47544;52.484;4.658;2023-05-16T00:52:04;9.00;;;1.33;;
61638;SDS011;47544;52.484;4.658;2023-05-16T00:52:15;10.85;;;1.67;;
61638;SDS011;47544;52.484;4.658;2023-05-16T00:52:27;10.18;;;1.50;;
61638;SDS011;47544;52.484;4.658;2023-05-16T00:52:38;7.65;;;1.33;;
61638;SDS011;47544;52.484;4.658;2023-05-16T00:52:49;6.43;;;1.00;;
61638;SDS011;47544;52.484;4.658;2023-05-16T00:53:01;6.63;;;1.17;;
61638;SDS011;47544;52.484;4.658;2023-05-16T00:53:12;7.63;;;1.10;;
61638;SDS011;47544;52.484;4.658;2023-05-16T00:53:22;8.00;;;1.10;;
61638;SDS011;47544;52.484;4.658;2023-05-16T00:53:35;7.50;;;0.93;;
61638;SDS011;47544;52.484;4.658;2023-05-16T00:53:46;9.30;;;1.08;;
61638;SDS011;47544;52.484;4.658;2023-05-16T00:53:57;9.57;;;1.27;;
61638;SDS011;47544;52.484;4.658;2023-05-16T00:54:08;10.88;;;1.50;;
61638;SDS011;47544;52.484;4.658;2023-05-16T00:54:20;11.63;;;1.42;;
61638;SDS011;47544;52.484;4.658;2023-05-16T00:54:32;11.88;;;1.20;;
61638;SDS011;47544;52.484;4.658;2023-05-16T00:54:43;11.20;;;1.10;;
61638;SDS011;47544;52.484;4.658;2023-05-16T00:54:54;10.53;;;1.20;;
61638;SDS011;47544;52.484;4.658;2023-05-16T00:55:06;11.68;;;1.40;;
61638;SDS011;47544;52.484;4.658;2023-05-16T00:55:18;10.70;;;1.40;;
61638;SDS011;47544;52.484;4.658;2023-05-16T00:55:29;9.10;;;1.20;;
61638;SDS011;47544;52.484;4.658;2023-05-16T00:55:40;9.73;;;1.33;;
61638;SDS011;47544;52.484;4.658;2023-05-16T00:55:51;8.33;;;1.30;;
61638;SDS011;47544;52.484;4.658;2023-05-16T00:56:02;9.18;;;1.25;;
61638;SDS011;47544;52.484;4.658;2023-05-16T00:56:14;8.10;;;1.15;;
61638;SDS011;47544;52.484;4.658;2023-05-16T00:56:25;7.93;;;1.20;;
61638;SDS011;47544;52.484;4.658;2023-05-16T00:56:36;10.23;;;1.40;;
61638;SDS011;47544;52.484;4.658;2023-05-16T00:56:47;10.95;;;1.60;;
61638;SDS011;47544;52.484;4.658;2023-05-16T00:56:58;10.50;;;1.60;;
61638;SDS011;47544;52.484;4.658;2023-05-16T00:57:10;9.00;;;1.48;;
61638;SDS011;47544;52.484;4.658;2023-05-16T00:57:21;7.85;;;1.20;;
61638;SDS011;47544;52.484;4.658;2023-05-16T00:57:32;7.18;;;1.15;;
61638;SDS011;47544;52.484;4.658;2023-05-16T00:57:43;7.43;;;1.40;;
61638;SDS011;47544;52.484;4.658;2023-05-16T00:57:54;8.90;;;1.45;;
61638;SDS011;47544;52.484;4.658;2023-05-16T00:58:07;10.63;;;1.38;;
61638;SDS011;47544;52.484;4.658;2023-05-16T00:58:18;11.57;;;1.40;;
61638;SDS011;47544;52.484;4.658;2023-05-16T00:58:30;12.00;;;1.75;;
61638;SDS011;47544;52.484;4.658;2023-05-16T00:58:43;11.10;;;1.80;;
61638;SDS011;47544;52.484;4.658;2023-05-16T00:58:54;11.50;;;1.30;;
61638;SDS011;47544;52.484;4.658;2023-05-16T00:59:05;9.20;;;1.20;;
61638;SDS011;47544;52.484;4.658;2023-05-16T00:59:16;8.68;;;1.20;;
61638;SDS011;47544;52.484;4.658;2023-05-16T00:59:27;8.07;;;1.60;;
61638;SDS011;47544;52.484;4.658;2023-05-16T00:59:39;8.88;;;1.60;;
61638;SDS011;47544;52.484;4.658;2023-05-16T00:59:50;9.82;;;1.35;;
61638;SDS011;47544;52.484;4.658;2023-05-16T01:00:02;9.85;;;1.10;;
61638;SDS011;47544;52.484;4.658;2023-05-16T01:00:13;10.30;;;1.25;;
61638;SDS011;47544;52.484;4.658;2023-05-16T01:00:25;9.02;;;1.38;;
61638;SDS011;47544;52.484;4.658;2023-05-16T01:00:36;7.65;;;1.30;;
61638;SDS011;47544;52.484;4.658;2023-05-16T01:00:48;7.40;;;1.25;;
61638;SDS011;47544;52.484;4.658;2023-05-16T01:00:59;8.43;;;1.35;;
61638;SDS011;47544;52.484;4.658;2023-05-16T01:01:13;9.98;;;1.60;;
61638;SDS011;47544;52.484;4.658;2023-05-16T01:01:24;8.55;;;1.50;;
61638;SDS011;47544;52.484;4.658;2023-05-16T01:01:36;7.43;;;1.30;;
61638;SDS011;47544;52.484;4.658;2023-05-16T01:01:48;6.15;;;1.30;;
61638;SDS011;47544;52.484;4.658;2023-05-16T01:01:59;7.13;;;1.40;;
61638;SDS011;47544;52.484;4.658;2023-05-16T01:02:11;7.55;;;1.33;;
61638;SDS011;47544;52.484;4.658;2023-05-16T01:02:22;8.32;;;1.40;;
61638;SDS011;47544;52.484;4.658;2023-05-16T01:02:37;7.13;;;1.23;;
61638;SDS011;47544;52.484;4.658;2023-05-16T01:02:48;6.05;;;1.00;;
61638;SDS011;47544;52.484;4.658;2023-05-16T01:03:03;6.97;;;0.98;;
61638;SDS011;47544;52.484;4.658;2023-05-16T01:03:15;7.07;;;1.00;;
61638;SDS011;47544;52.484;4.658;2023-05-16T01:03:27;6.88;;;0.93;;
61638;SDS011;47544;52.484;4.658;2023-05-16T01:03:39;6.90;;;1.00;;
61638;SDS011;47544;52.484;4.658;2023-05-16T01:03:50;6.63;;;1.20;;
61638;SDS011;47544;52.484;4.658;2023-05-16T01:04:01;7.93;;;1.23;;
61638;SDS011;47544;52.484;4.658;2023-05-16T01:04:12;6.15;;;1.10;;
61638;SDS011;47544;52.484;4.658;2023-05-16T01:04:23;7.38;;;1.00;;
61638;SDS011;47544;52.484;4.658;2023-05-16T01:04:35;6.80;;;1.10;;
61638;SDS011;47544;52.484;4.658;2023-05-16T01:04:46;8.67;;;1.20;;
61638;SDS011;47544;52.484;4.658;2023-05-16T01:04:57;9.02;;;1.35;;
61638;SDS011;47544;52.484;4.658;2023-05-16T01:05:09;9.75;;;1.27;;
61638;SDS011;47544;52.484;4.658;2023-05-16T01:05:20;8.55;;;1.17;;
61638;SDS011;47544;52.484;4.658;2023-05-16T01:05:32;8.82;;;1.20;;
61638;SDS011;47544;52.484;4.658;2023-05-16T01:05:42;9.05;;;1.20;;
61638;SDS011;47544;52.484;4.658;2023-05-16T01:05:54;11.40;;;1.20;;
61638;SDS011;47544;52.484;4.658;2023-05-16T01:06:07;8.43;;;0.93;;
61638;SDS011;47544;52.484;4.658;2023-05-16T01:06:18;5.70;;;0.80;;
61638;SDS011;47544;52.484;4.658;2023-05-16T01:06:29;6.15;;;0.90;;
61638;SDS011;47544;52.484;4.658;2023-05-16T01:06:41;8.55;;;1.05;;
61638;SDS011;47544;52.484;4.658;2023-05-16T01:06:51;10.15;;;1.38;;
61638;SDS011;47544;52.484;4.658;2023-05-16T01:07:02;11.63;;;1.58;;
61638;SDS011;47544;52.484;4.658;2023-05-16T01:07:13;11.40;;;1.42;;
61638;SDS011;47544;52.484;4.658;2023-05-16T01:07:24;10.23;;;1.10;;
61638;SDS011;47544;52.484;4.658;2023-05-16T01:07:39;9.05;;;1.05;;
61638;SDS011;47544;52.484;4.658;2023-05-16T01:07:50;9.50;;;1.20;;
61638;SDS011;47544;52.484;4.658;2023-05-16T01:08:02;10.68;;;1.30;;
61638;SDS011;47544;52.484;4.658;2023-05-16T01:08:13;10.43;;;1.20;;
61638;SDS011;47544;52.484;4.658;2023-05-16T01:08:24;10.75;;;1.30;;